Wind From: 11-12-2017 06:00 Until: 12-12-2017 06:00 warning for: Wind Level: Orange info button

Power and phone distribution networks may be disrupted for relatively long periods., Roofs and chimneys can be damaged. , Tree branches may break. , Vehicles can be deported. , Traffic may be disrupted, particularly on secondary roads in forest areas. Limit your trips. , Limit your speed in highway driving, especially if you drive a vehicle or hitch sensitive to wind. , Do not go for walks in forests or along the coast., In town, be vigilant against possible falling objects., Do not work on roofs and do not touch any electrical line fallen on the ground., Store or secure sensitive objects to wind or likely to be damaged., Always install power generators outside buildings. 


Meteo18 Weather Cam more information Meteo18 Weather Cam


Thunder radar more information blitzortung!


Rain radar more information rain snow radar


Visit our other weather sites:

Template documentation
and downloads

And another site



Weather Underground History page Text

Daily Summary for May 10, 2017 Units:  Metric    English   Both
« Previous Day
Next Day »
Daily Weekly Monthly Yearly Custom
  High: Low: Average:
Temperature: 22.8 °C 4.2 °C 14.2 °C
Dew Point: 12.4 °C 2.5 °C 7.7 °C
Humidity: 90 % 42 % 68 %
Wind Speed: 12.9 km/h 0.0 km/h 3.3 km/h
Wind Gust: 19.3 km/h - -
Wind:- - ESE
Pressure: 1012.1 hPa 1001.9 hPa -
Precipitation: 0.0 mm    
Historical Graphs
 
 
Tabular Data for May 10, 2017
Time Temperature Dew Point Pressure Wind Wind Speed Wind Gust Humidity Rainfall Rate (Hourly)
00:02 9.5 °C 5.5 °C 1012.1 hPa NNE 11.3 km/h 16.1 km/h 76 % 0.0 mm
00:07 9.4 °C 5.4 °C 1011.7 hPa NE 6.4 km/h 12.9 km/h 76 % 0.0 mm
00:12 9.3 °C 5.3 °C 1012.1 hPa NE 4.8 km/h 12.9 km/h 76 % 0.0 mm
00:17 9.2 °C 5.4 °C 1011.7 hPa NE 6.4 km/h 12.9 km/h 77 % 0.0 mm
00:22 9.1 °C 5.5 °C 1012.1 hPa NE 3.2 km/h 12.9 km/h 78 % 0.0 mm
00:27 8.9 °C 5.3 °C 1012.1 hPa NE 4.8 km/h 12.9 km/h 78 % 0.0 mm
00:32 8.9 °C 5.3 °C 1011.7 hPa NE 6.4 km/h 12.9 km/h 78 % 0.0 mm
00:37 8.7 °C 5.3 °C 1011.7 hPa NE 4.8 km/h 17.7 km/h 79 % 0.0 mm
00:42 8.6 °C 5.2 °C 1011.7 hPa ENE 6.4 km/h 17.7 km/h 79 % 0.0 mm
00:47 8.6 °C 5.3 °C 1011.7 hPa NE 8.0 km/h 17.7 km/h 80 % 0.0 mm
00:52 8.5 °C 5.2 °C 1011.7 hPa NNE 12.9 km/h 16.1 km/h 80 % 0.0 mm
00:57 8.5 °C 5.2 °C 1011.7 hPa NE 9.7 km/h 17.7 km/h 80 % 0.0 mm
01:02 8.5 °C 5.2 °C 1011.7 hPa NE 9.7 km/h 17.7 km/h 80 % 0.0 mm
01:07 8.4 °C 5.2 °C 1011.7 hPa NNE 12.9 km/h 16.1 km/h 80 % 0.0 mm
01:12 8.4 °C 5.2 °C 1011.7 hPa NNE 11.3 km/h 16.1 km/h 80 % 0.0 mm
01:17 8.4 °C 5.2 °C 1011.7 hPa NE 8.0 km/h 16.1 km/h 80 % 0.0 mm
01:22 8.3 °C 5.1 °C 1011.4 hPa NE 3.2 km/h 14.5 km/h 80 % 0.0 mm
01:27 8.3 °C 5.2 °C 1011.4 hPa NNE 8.0 km/h 14.5 km/h 81 % 0.0 mm
01:32 8.3 °C 5.2 °C 1011.4 hPa NNE 11.3 km/h 14.5 km/h 81 % 0.0 mm
01:37 8.2 °C 5.1 °C 1011.4 hPa ENE 8.0 km/h 14.5 km/h 81 % 0.0 mm
01:42 8.1 °C 5.0 °C 1011.4 hPa NE 8.0 km/h 16.1 km/h 81 % 0.0 mm
01:47 8.1 °C 5.0 °C 1011.4 hPa NNE 8.0 km/h 16.1 km/h 81 % 0.0 mm
01:52 8.0 °C 5.1 °C 1011.4 hPa NE 12.9 km/h 12.9 km/h 82 % 0.0 mm
01:57 7.9 °C 5.0 °C 1011.1 hPa NE 6.4 km/h 14.5 km/h 82 % 0.0 mm
02:02 7.8 °C 4.9 °C 1011.1 hPa NNE 4.8 km/h 14.5 km/h 82 % 0.0 mm
02:12 7.7 °C 4.8 °C 1011.1 hPa ENE 4.8 km/h 11.3 km/h 82 % 0.0 mm
02:17 7.7 °C 4.8 °C 1011.1 hPa NE 4.8 km/h 11.3 km/h 82 % 0.0 mm
02:22 7.6 °C 4.7 °C 1010.7 hPa NNE 6.4 km/h 11.3 km/h 82 % 0.0 mm
02:27 7.6 °C 4.7 °C 1010.7 hPa NE 8.0 km/h 9.7 km/h 82 % 0.0 mm
02:32 7.8 °C 4.7 °C 1010.7 hPa NNE 3.2 km/h 12.9 km/h 81 % 0.0 mm
02:42 7.8 °C 4.6 °C 1010.7 hPa ENE 6.4 km/h 12.9 km/h 80 % 0.0 mm
02:47 7.8 °C 4.6 °C 1010.4 hPa NNE 8.0 km/h 11.3 km/h 80 % 0.0 mm
02:57 7.8 °C 4.6 °C 1010.4 hPa NE 6.4 km/h 11.3 km/h 80 % 0.0 mm
03:02 7.8 °C 4.4 °C 1010.4 hPa NE 6.4 km/h 11.3 km/h 79 % 0.0 mm
03:07 7.8 °C 4.4 °C 1010.4 hPa NE 4.8 km/h 11.3 km/h 79 % 0.0 mm
03:12 7.7 °C 4.3 °C 1010.4 hPa NE 3.2 km/h 9.7 km/h 79 % 0.0 mm
03:17 7.6 °C 4.2 °C 1010.4 hPa ENE 3.2 km/h 9.7 km/h 79 % 0.0 mm
03:22 7.6 °C 4.4 °C 1010.4 hPa NE 3.2 km/h 9.7 km/h 80 % 0.0 mm
03:27 7.4 °C 4.2 °C 1010.0 hPa NNE 3.2 km/h 6.4 km/h 80 % 0.0 mm
03:32 7.3 °C 4.1 °C 1010.0 hPa NE 3.2 km/h 6.4 km/h 80 % 0.0 mm
03:37 7.1 °C 4.1 °C 1010.0 hPa Calm   4.8 km/h 81 % 0.0 mm
03:42 6.8 °C 3.9 °C 1010.0 hPa North 1.6 km/h 4.8 km/h 82 % 0.0 mm
03:47 6.7 °C 3.8 °C 1010.0 hPa Calm   3.2 km/h 82 % 0.0 mm
03:52 6.6 °C 3.7 °C 1010.0 hPa Calm   4.8 km/h 82 % 0.0 mm
03:57 6.6 °C 3.9 °C 1010.0 hPa Calm   4.8 km/h 83 % 0.0 mm
04:02 6.5 °C 3.8 °C 1010.0 hPa NNW 1.6 km/h 4.8 km/h 83 % 0.0 mm
04:07 6.4 °C 3.7 °C 1010.0 hPa Calm   4.8 km/h 83 % 0.0 mm
04:12 6.2 °C 3.5 °C 1010.0 hPa Calm   3.2 km/h 83 % 0.0 mm
04:17 6.1 °C 3.6 °C 1009.7 hPa Calm   3.2 km/h 84 % 0.0 mm
04:22 6.0 °C 3.5 °C 1009.7 hPa North 4.8 km/h 4.8 km/h 84 % 0.0 mm
04:27 5.9 °C 3.4 °C 1009.7 hPa North 1.6 km/h 6.4 km/h 84 % 0.0 mm
04:32 5.8 °C 3.5 °C 1009.7 hPa NE 3.2 km/h 6.4 km/h 85 % 0.0 mm
04:37 5.8 °C 3.5 °C 1009.4 hPa Calm   4.8 km/h 85 % 0.0 mm
04:42 5.7 °C 3.4 °C 1009.7 hPa Calm   4.8 km/h 85 % 0.0 mm
04:47 5.5 °C 3.0 °C 1009.4 hPa Calm   4.8 km/h 84 % 0.0 mm
04:52 5.2 °C 2.9 °C 1009.4 hPa Calm   4.8 km/h 85 % 0.0 mm
04:57 5.1 °C 3.0 °C 1009.4 hPa NW 1.6 km/h 1.6 km/h 86 % 0.0 mm
05:02 4.9 °C 2.9 °C 1009.4 hPa NW 1.6 km/h 1.6 km/h 87 % 0.0 mm
05:12 4.8 °C 2.7 °C 1009.4 hPa NW 1.6 km/h 1.6 km/h 86 % 0.0 mm
05:17 4.6 °C 2.9 °C 1009.0 hPa NW 1.6 km/h 3.2 km/h 89 % 0.0 mm
05:27 4.8 °C 3.0 °C 1008.7 hPa Calm   3.2 km/h 88 % 0.0 mm
05:32 4.7 °C 2.9 °C 1008.7 hPa North 1.6 km/h 3.2 km/h 88 % 0.0 mm
05:37 4.7 °C 2.9 °C 1008.7 hPa Calm   4.8 km/h 88 % 0.0 mm
05:42 4.4 °C 2.6 °C 1008.7 hPa Calm   4.8 km/h 88 % 0.0 mm
05:47 4.2 °C 2.5 °C 1008.7 hPa Calm   4.8 km/h 89 % 0.0 mm
05:52 4.3 °C 2.8 °C 1008.7 hPa NW 1.6 km/h 4.8 km/h 90 % 0.0 mm
05:57 4.6 °C 2.9 °C 1008.7 hPa NW 1.6 km/h 3.2 km/h 89 % 0.0 mm
06:02 4.7 °C 2.9 °C 1008.7 hPa Calm   3.2 km/h 88 % 0.0 mm
06:12 4.4 °C 2.7 °C 1008.4 hPa NW 1.6 km/h 3.2 km/h 89 % 0.0 mm
06:17 4.4 °C 2.7 °C 1008.4 hPa Calm   1.6 km/h 89 % 0.0 mm
06:22 4.6 °C 2.9 °C 1008.4 hPa Calm   1.6 km/h 89 % 0.0 mm
06:32 4.6 °C 2.9 °C 1008.4 hPa Calm   1.6 km/h 89 % 0.0 mm
06:42 4.8 °C 3.1 °C 1008.4 hPa Calm   1.6 km/h 89 % 0.0 mm
06:52 5.1 °C 3.3 °C 1008.4 hPa Calm   1.6 km/h 88 % 0.0 mm
07:02 5.4 °C 3.4 °C 1008.4 hPa NNE 1.6 km/h 1.6 km/h 87 % 0.0 mm
07:07 5.7 °C 3.7 °C 1008.0 hPa Calm   3.2 km/h 87 % 0.0 mm
07:12 5.9 °C 3.6 °C 1008.0 hPa Calm   3.2 km/h 85 % 0.0 mm
07:17 5.9 °C 3.6 °C 1008.0 hPa Calm   1.6 km/h 85 % 0.0 mm
07:22 5.8 °C 3.5 °C 1008.0 hPa Calm   1.6 km/h 85 % 0.0 mm
07:32 6.3 °C 4.1 °C 1008.0 hPa Calm   3.2 km/h 86 % 0.0 mm
07:37 6.5 °C 4.0 °C 1008.0 hPa NE 3.2 km/h 3.2 km/h 84 % 0.0 mm
07:42 6.6 °C 4.1 °C 1008.0 hPa NNE 4.8 km/h 4.8 km/h 84 % 0.0 mm
07:47 6.6 °C 4.1 °C 1008.0 hPa East 3.2 km/h 8.0 km/h 84 % 0.0 mm
07:52 6.9 °C 4.4 °C 1008.0 hPa NE 4.8 km/h 8.0 km/h 84 % 0.0 mm
07:57 7.2 °C 4.5 °C 1008.0 hPa NE 3.2 km/h 9.7 km/h 83 % 0.0 mm
08:02 7.4 °C 4.5 °C 1008.0 hPa East 1.6 km/h 9.7 km/h 82 % 0.0 mm
08:07 7.7 °C 4.6 °C 1008.0 hPa Calm   8.0 km/h 81 % 0.0 mm
08:12 7.8 °C 4.4 °C 1008.0 hPa East 1.6 km/h 8.0 km/h 79 % 0.0 mm
08:17 8.0 °C 4.8 °C 1008.0 hPa ENE 4.8 km/h 4.8 km/h 80 % 0.0 mm
08:22 8.2 °C 5.1 °C 1007.7 hPa Calm   4.8 km/h 81 % 0.0 mm
08:27 8.3 °C 5.1 °C 1007.7 hPa NNE 3.2 km/h 4.8 km/h 80 % 0.0 mm
08:32 8.4 °C 5.2 °C 1007.7 hPa NE 3.2 km/h 4.8 km/h 80 % 0.0 mm
08:37 8.4 °C 5.3 °C 1007.7 hPa ENE 3.2 km/h 8.0 km/h 81 % 0.0 mm
08:42 8.7 °C 5.4 °C 1007.7 hPa NE 4.8 km/h 8.0 km/h 80 % 0.0 mm
08:52 9.0 °C 5.9 °C 1007.3 hPa Calm   9.7 km/h 81 % 0.0 mm
08:57 9.3 °C 5.8 °C 1007.3 hPa NE 3.2 km/h 8.0 km/h 79 % 0.0 mm
09:02 9.7 °C 6.0 °C 1007.3 hPa NE 3.2 km/h 8.0 km/h 78 % 0.0 mm
09:12 10.2 °C 6.0 °C 1007.3 hPa East 3.2 km/h 6.4 km/h 75 % 0.0 mm
09:17 10.3 °C 6.3 °C 1007.3 hPa NE 4.8 km/h 8.0 km/h 76 % 0.0 mm
09:22 10.8 °C 6.5 °C 1007.3 hPa East 3.2 km/h 8.0 km/h 75 % 0.0 mm
09:27 11.2 °C 6.7 °C 1007.3 hPa ENE 4.8 km/h 8.0 km/h 74 % 0.0 mm
09:32 11.6 °C 6.5 °C 1007.3 hPa ESE 8.0 km/h 8.0 km/h 71 % 0.0 mm
09:42 11.5 °C 6.0 °C 1007.3 hPa Calm   14.5 km/h 69 % 0.0 mm
09:47 11.7 °C 6.2 °C 1007.3 hPa East 4.8 km/h 14.5 km/h 69 % 0.0 mm
09:52 11.7 °C 6.4 °C 1007.3 hPa East 4.8 km/h 14.5 km/h 70 % 0.0 mm
09:57 11.9 °C 6.4 °C 1007.3 hPa East 1.6 km/h 12.9 km/h 69 % 0.0 mm
10:02 12.2 °C 6.7 °C 1007.3 hPa East 4.8 km/h 12.9 km/h 69 % 0.0 mm
10:12 12.7 °C 6.7 °C 1007.0 hPa NE 4.8 km/h 14.5 km/h 67 % 0.0 mm
10:17 13.1 °C 7.3 °C 1007.0 hPa East 3.2 km/h 14.5 km/h 68 % 0.0 mm
10:22 13.2 °C 7.2 °C 1007.0 hPa SSE 3.2 km/h 14.5 km/h 67 % 0.0 mm
10:32 13.3 °C 7.5 °C 1006.7 hPa East 8.0 km/h 11.3 km/h 68 % 0.0 mm
10:37 13.7 °C 8.1 °C 1006.7 hPa ENE 3.2 km/h 11.3 km/h 69 % 0.0 mm
10:42 14.2 °C 8.6 °C 1006.7 hPa SE 3.2 km/h 11.3 km/h 69 % 0.0 mm
10:47 14.6 °C 7.9 °C 1006.7 hPa ESE 6.4 km/h 14.5 km/h 64 % 0.0 mm
10:52 14.6 °C 7.6 °C 1006.7 hPa ESE 1.6 km/h 14.5 km/h 63 % 0.0 mm
10:57 14.7 °C 8.2 °C 1006.7 hPa SE 4.8 km/h 8.0 km/h 65 % 0.0 mm
11:02 14.8 °C 7.6 °C 1006.7 hPa East 6.4 km/h 8.0 km/h 62 % 0.0 mm
11:07 14.9 °C 8.1 °C 1006.3 hPa ENE 6.4 km/h 16.1 km/h 64 % 0.0 mm
11:12 15.1 °C 7.6 °C 1006.7 hPa East 11.3 km/h 16.1 km/h 61 % 0.0 mm
11:17 15.4 °C 7.9 °C 1006.3 hPa East 6.4 km/h 16.1 km/h 61 % 0.0 mm
11:22 15.8 °C 8.8 °C 1006.7 hPa ENE 3.2 km/h 16.1 km/h 63 % 0.0 mm
11:32 16.4 °C 8.4 °C 1006.7 hPa SE 6.4 km/h 14.5 km/h 59 % 0.0 mm
11:37 16.5 °C 8.2 °C 1006.3 hPa East 8.0 km/h 9.7 km/h 58 % 0.0 mm
11:42 16.4 °C 8.1 °C 1006.3 hPa ESE 6.4 km/h 11.3 km/h 58 % 0.0 mm
11:47 16.8 °C 8.5 °C 1006.3 hPa SE 9.7 km/h 12.9 km/h 58 % 0.0 mm
11:52 17.1 °C 8.5 °C 1006.3 hPa East 4.8 km/h 14.5 km/h 57 % 0.0 mm
11:57 17.1 °C 9.0 °C 1006.3 hPa SE 1.6 km/h 14.5 km/h 59 % 0.0 mm
12:02 17.2 °C 8.3 °C 1006.3 hPa ESE 6.4 km/h 14.5 km/h 56 % 0.0 mm
12:07 17.4 °C 9.3 °C 1006.3 hPa ESE 1.6 km/h 11.3 km/h 59 % 0.0 mm
12:12 17.4 °C 7.7 °C 1006.0 hPa Calm   11.3 km/h 53 % 0.0 mm
12:17 17.4 °C 8.3 °C 1006.0 hPa NE 3.2 km/h 12.9 km/h 55 % 0.0 mm
12:22 17.7 °C 8.5 °C 1006.0 hPa ESE 8.0 km/h 12.9 km/h 55 % 0.0 mm
12:32 17.7 °C 9.1 °C 1006.0 hPa East 8.0 km/h 11.3 km/h 57 % 0.0 mm
12:42 18.0 °C 8.3 °C 1006.0 hPa SE 1.6 km/h 12.9 km/h 53 % 0.0 mm
12:47 18.3 °C 8.8 °C 1005.6 hPa NE 1.6 km/h 12.9 km/h 54 % 0.0 mm
12:52 18.4 °C 9.5 °C 1005.6 hPa SE 6.4 km/h 12.9 km/h 56 % 0.0 mm
12:57 18.5 °C 9.3 °C 1005.6 hPa SSE 6.4 km/h 11.3 km/h 55 % 0.0 mm
13:02 18.8 °C 10.1 °C 1005.6 hPa East 3.2 km/h 12.9 km/h 57 % 0.0 mm
13:07 18.7 °C 9.5 °C 1005.6 hPa East 3.2 km/h 12.9 km/h 55 % 0.0 mm
13:12 19.3 °C 10.3 °C 1005.6 hPa ESE 1.6 km/h 12.9 km/h 56 % 0.0 mm
13:17 19.2 °C 9.4 °C 1005.6 hPa SE 1.6 km/h 12.9 km/h 53 % 0.0 mm
13:22 18.9 °C 9.7 °C 1005.3 hPa ESE 3.2 km/h 16.1 km/h 55 % 0.0 mm
13:27 19.3 °C 9.2 °C 1005.3 hPa SE 4.8 km/h 16.1 km/h 52 % 0.0 mm
13:32 19.3 °C 9.2 °C 1005.3 hPa ESE 4.8 km/h 16.1 km/h 52 % 0.0 mm
13:37 19.4 °C 9.0 °C 1005.3 hPa ENE 3.2 km/h 12.9 km/h 51 % 0.0 mm
13:42 19.5 °C 9.4 °C 1005.0 hPa ENE 6.4 km/h 12.9 km/h 52 % 0.0 mm
13:47 19.8 °C 10.2 °C 1005.3 hPa East 1.6 km/h 11.3 km/h 54 % 0.0 mm
13:52 20.2 °C 9.7 °C 1005.0 hPa Calm   11.3 km/h 51 % 0.0 mm
13:57 20.0 °C 9.3 °C 1005.0 hPa SSE 8.0 km/h 9.7 km/h 50 % 0.0 mm
14:02 19.9 °C 9.5 °C 1005.0 hPa ENE 9.7 km/h 9.7 km/h 51 % 0.0 mm
14:12 20.4 °C 8.7 °C 1005.0 hPa SSE 3.2 km/h 11.3 km/h 47 % 0.0 mm
14:17 20.7 °C 9.9 °C 1005.0 hPa SE 6.4 km/h 11.3 km/h 50 % 0.0 mm
14:22 20.7 °C 9.0 °C 1005.0 hPa WSW 3.2 km/h 12.9 km/h 47 % 0.0 mm
14:27 20.9 °C 10.7 °C 1005.0 hPa Calm   12.9 km/h 52 % 0.0 mm
14:32 21.2 °C 8.5 °C 1005.0 hPa Calm   12.9 km/h 44 % 0.0 mm
14:42 21.3 °C 9.8 °C 1004.6 hPa SSE 11.3 km/h 17.7 km/h 48 % 0.0 mm
14:47 21.2 °C 10.1 °C 1004.6 hPa SSW 4.8 km/h 17.7 km/h 49 % 0.0 mm
14:52 21.0 °C 9.6 °C 1004.6 hPa South 8.0 km/h 17.7 km/h 48 % 0.0 mm
14:57 20.9 °C 8.5 °C 1004.6 hPa South 6.4 km/h 17.7 km/h 45 % 0.0 mm
15:02 20.8 °C 9.1 °C 1004.6 hPa SSE 6.4 km/h 17.7 km/h 47 % 0.0 mm
15:07 20.7 °C 9.3 °C 1004.3 hPa ESE 6.4 km/h 17.7 km/h 48 % 0.0 mm
15:12 20.8 °C 9.1 °C 1004.3 hPa SSE 3.2 km/h 17.7 km/h 47 % 0.0 mm
15:17 21.1 °C 9.0 °C 1004.3 hPa SE 3.2 km/h 16.1 km/h 46 % 0.0 mm
15:22 21.3 °C 8.9 °C 1004.3 hPa SE 3.2 km/h 9.7 km/h 45 % 0.0 mm
15:32 21.2 °C 10.7 °C 1004.3 hPa ENE 3.2 km/h 11.3 km/h 51 % 0.0 mm
15:42 21.2 °C 9.8 °C 1004.3 hPa South 3.2 km/h 11.3 km/h 48 % 0.0 mm
15:47 20.9 °C 9.8 °C 1004.3 hPa East 3.2 km/h 9.7 km/h 49 % 0.0 mm
15:57 21.0 °C 11.1 °C 1003.9 hPa ENE 3.2 km/h 9.7 km/h 53 % 0.0 mm
16:02 21.1 °C 11.1 °C 1003.9 hPa East 4.8 km/h 9.7 km/h 53 % 0.0 mm
16:07 21.0 °C 10.2 °C 1003.9 hPa East 1.6 km/h 9.7 km/h 50 % 0.0 mm
16:12 21.0 °C 10.2 °C 1003.9 hPa ENE 4.8 km/h 9.7 km/h 50 % 0.0 mm
16:17 20.8 °C 9.7 °C 1003.9 hPa East 1.6 km/h 12.9 km/h 49 % 0.0 mm
16:22 20.9 °C 9.8 °C 1003.9 hPa Calm   12.9 km/h 49 % 0.0 mm
16:32 21.2 °C 10.4 °C 1003.9 hPa ENE 3.2 km/h 9.7 km/h 50 % 0.0 mm
16:42 21.8 °C 11.5 °C 1003.6 hPa SE 1.6 km/h 6.4 km/h 52 % 0.0 mm
16:47 21.7 °C 10.8 °C 1003.6 hPa ENE 6.4 km/h 11.3 km/h 50 % 0.0 mm
16:52 21.4 °C 11.7 °C 1003.6 hPa East 3.2 km/h 11.3 km/h 54 % 0.0 mm
16:57 21.5 °C 11.2 °C 1003.6 hPa East 1.6 km/h 11.3 km/h 52 % 0.0 mm
17:02 21.8 °C 11.8 °C 1003.6 hPa Calm   9.7 km/h 53 % 0.0 mm
17:07 22.0 °C 11.7 °C 1003.6 hPa ESE 4.8 km/h 8.0 km/h 52 % 0.0 mm
17:12 22.0 °C 11.7 °C 1003.6 hPa SSE 1.6 km/h 11.3 km/h 52 % 0.0 mm
17:17 22.0 °C 11.4 °C 1003.6 hPa ESE 3.2 km/h 11.3 km/h 51 % 0.0 mm
17:22 21.9 °C 11.3 °C 1003.6 hPa ESE 6.4 km/h 8.0 km/h 51 % 0.0 mm
17:27 21.7 °C 12.0 °C 1003.3 hPa East 1.6 km/h 8.0 km/h 54 % 0.0 mm
17:32 21.8 °C 11.8 °C 1003.3 hPa Calm   8.0 km/h 53 % 0.0 mm
17:37 21.9 °C 11.0 °C 1003.3 hPa Calm   8.0 km/h 50 % 0.0 mm
17:42 22.1 °C 10.9 °C 1003.3 hPa SW 1.6 km/h 8.0 km/h 49 % 0.0 mm
17:47 22.2 °C 10.7 °C 1003.3 hPa SW 6.4 km/h 8.0 km/h 48 % 0.0 mm
17:52 22.1 °C 9.6 °C 1003.3 hPa SE 3.2 km/h 9.7 km/h 45 % 0.0 mm
17:57 22.1 °C 9.3 °C 1003.3 hPa South 3.2 km/h 11.3 km/h 44 % 0.0 mm
18:02 22.2 °C 9.0 °C 1003.3 hPa South 8.0 km/h 11.3 km/h 43 % 0.0 mm
18:12 22.0 °C 8.8 °C 1003.3 hPa SE 3.2 km/h 9.7 km/h 43 % 0.0 mm
18:17 21.9 °C 9.4 °C 1002.9 hPa Calm   11.3 km/h 45 % 0.0 mm
18:22 22.0 °C 8.8 °C 1002.9 hPa WSW 1.6 km/h 11.3 km/h 43 % 0.0 mm
18:27 22.2 °C 9.4 °C 1002.9 hPa WSW 3.2 km/h 4.8 km/h 44 % 0.0 mm
18:32 22.2 °C 9.0 °C 1002.9 hPa West 1.6 km/h 4.8 km/h 43 % 0.0 mm
18:37 22.5 °C 9.6 °C 1002.9 hPa WSW 4.8 km/h 6.4 km/h 44 % 0.0 mm
18:42 22.3 °C 9.5 °C 1002.9 hPa SW 3.2 km/h 6.4 km/h 44 % 0.0 mm
18:47 22.5 °C 9.6 °C 1002.9 hPa Calm   6.4 km/h 44 % 0.0 mm
18:52 22.8 °C 9.6 °C 1002.9 hPa WNW 3.2 km/h 6.4 km/h 43 % 0.0 mm
18:57 22.5 °C 8.9 °C 1002.6 hPa SW 3.2 km/h 4.8 km/h 42 % 0.0 mm
19:02 22.3 °C 9.8 °C 1002.6 hPa Calm   4.8 km/h 45 % 0.0 mm
19:07 22.3 °C 9.5 °C 1002.6 hPa Calm   4.8 km/h 44 % 0.0 mm
19:12 22.1 °C 9.6 °C 1002.6 hPa Calm   3.2 km/h 45 % 0.0 mm
19:17 21.7 °C 9.6 °C 1002.6 hPa Calm     46 % 0.0 mm
19:22 21.7 °C 8.9 °C 1002.3 hPa Calm     44 % 0.0 mm
19:27 21.6 °C 9.2 °C 1002.3 hPa Calm     45 % 0.0 mm
19:37 21.2 °C 9.8 °C 1002.3 hPa Calm     48 % 0.0 mm
19:42 21.1 °C 10.3 °C 1002.3 hPa Calm     50 % 0.0 mm
19:47 21.0 °C 9.6 °C 1002.3 hPa Calm     48 % 0.0 mm
19:52 21.1 °C 9.3 °C 1002.3 hPa Calm     47 % 0.0 mm
19:57 20.9 °C 9.8 °C 1002.3 hPa Calm     49 % 0.0 mm
20:02 20.7 °C 9.3 °C 1002.3 hPa Calm     48 % 0.0 mm
20:07 20.6 °C 9.5 °C 1002.3 hPa Calm     49 % 0.0 mm
20:12 20.5 °C 9.1 °C 1002.3 hPa Calm     48 % 0.0 mm
20:17 20.4 °C 9.6 °C 1002.3 hPa Calm     50 % 0.0 mm
20:22 20.5 °C 10.3 °C 1002.3 hPa Calm     52 % 0.0 mm
20:27 20.7 °C 10.5 °C 1002.3 hPa Calm     52 % 0.0 mm
20:32 20.7 °C 9.6 °C 1001.9 hPa Calm     49 % 0.0 mm
20:37 20.3 °C 11.0 °C 1001.9 hPa Calm     55 % 0.0 mm
20:47 19.3 °C 12.3 °C 1002.3 hPa SSE 6.4 km/h 6.4 km/h 64 % 0.0 mm
20:52 18.8 °C 12.1 °C 1002.3 hPa East 4.8 km/h 6.4 km/h 65 % 0.0 mm
20:57 18.4 °C 11.5 °C 1002.3 hPa East 4.8 km/h 11.3 km/h 64 % 0.0 mm
21:02 18.1 °C 11.6 °C 1002.3 hPa ENE 9.7 km/h 11.3 km/h 66 % 0.0 mm
21:07 17.7 °C 11.9 °C 1002.3 hPa NE 3.2 km/h 11.3 km/h 69 % 0.0 mm
21:12 17.3 °C 12.2 °C 1002.3 hPa NE 4.8 km/h 9.7 km/h 72 % 0.0 mm
21:17 16.9 °C 12.4 °C 1002.3 hPa ENE 4.8 km/h 9.7 km/h 75 % 0.0 mm
21:22 16.8 °C 12.3 °C 1002.3 hPa ENE 1.6 km/h 9.7 km/h 75 % 0.0 mm
21:27 16.7 °C 12.4 °C 1002.3 hPa ENE 1.6 km/h 9.7 km/h 76 % 0.0 mm
21:32 16.8 °C 12.1 °C 1002.6 hPa SSW 3.2 km/h 19.3 km/h 74 % 0.0 mm
21:37 17.7 °C 11.5 °C 1002.6 hPa SW 11.3 km/h 19.3 km/h 67 % 0.0 mm
21:42 17.7 °C 11.7 °C 1002.6 hPa West 3.2 km/h 19.3 km/h 68 % 0.0 mm
21:47 17.6 °C 12.1 °C 1002.6 hPa West 4.8 km/h 14.5 km/h 70 % 0.0 mm
21:52 17.4 °C 12.1 °C 1002.6 hPa West 4.8 km/h 11.3 km/h 71 % 0.0 mm
21:57 17.3 °C 12.2 °C 1002.6 hPa West 3.2 km/h 9.7 km/h 72 % 0.0 mm
22:02 17.2 °C 12.1 °C 1002.6 hPa West 1.6 km/h 6.4 km/h 72 % 0.0 mm
22:07 17.0 °C 12.1 °C 1002.6 hPa West 3.2 km/h 6.4 km/h 73 % 0.0 mm
22:12 16.9 °C 12.2 °C 1002.6 hPa West 3.2 km/h 8.0 km/h 74 % 0.0 mm
22:17 16.8 °C 12.1 °C 1002.6 hPa WSW 3.2 km/h 8.0 km/h 74 % 0.0 mm
22:22 16.7 °C 12.0 °C 1002.6 hPa WSW 1.6 km/h 8.0 km/h 74 % 0.0 mm
22:27 16.7 °C 12.0 °C 1002.6 hPa WSW 3.2 km/h 8.0 km/h 74 % 0.0 mm
22:32 16.6 °C 11.9 °C 1002.6 hPa Calm   4.8 km/h 74 % 0.0 mm
22:37 16.6 °C 11.9 °C 1002.6 hPa West 1.6 km/h 4.8 km/h 74 % 0.0 mm
22:42 16.6 °C 11.9 °C 1002.6 hPa Calm   3.2 km/h 74 % 0.0 mm
22:47 16.5 °C 11.8 °C 1002.6 hPa Calm   1.6 km/h 74 % 0.0 mm
22:52 16.4 °C 11.8 °C 1002.6 hPa Calm   1.6 km/h 74 % 0.0 mm
22:57 16.3 °C 11.9 °C 1002.6 hPa Calm   1.6 km/h 75 % 0.0 mm
23:02 16.2 °C 12.0 °C 1002.6 hPa Calm   1.6 km/h 76 % 0.0 mm
23:07 15.9 °C 12.1 °C 1002.6 hPa Calm   3.2 km/h 78 % 0.0 mm
23:12 15.6 °C 12.2 °C 1002.6 hPa Calm   3.2 km/h 80 % 0.0 mm
23:17 15.2 °C 12.0 °C 1002.6 hPa Calm   3.2 km/h 81 % 0.0 mm
23:22 15.0 °C 12.1 °C 1002.6 hPa Calm   3.2 km/h 83 % 0.0 mm
23:32 14.4 °C 11.7 °C 1002.6 hPa Calm   3.2 km/h 84 % 0.0 mm
23:37 14.3 °C 11.8 °C 1002.6 hPa Calm   3.2 km/h 85 % 0.0 mm
23:42 14.2 °C 11.7 °C 1002.6 hPa Calm   3.2 km/h 85 % 0.0 mm
23:47 14.0 °C 11.7 °C 1002.6 hPa Calm   1.6 km/h 86 % 0.0 mm
23:52 13.9 °C 11.8 °C 1002.6 hPa Calm   1.6 km/h 87 % 0.0 mm
23:57 13.8 °C 11.7 °C 1002.6 hPa Calm   1.6 km/h 87 % 0.0 mm
Meteo18
Compliments of Weather Underground - 4 mb

Script developed by  Jim McMurry - jmcmurry@mwt.net Adapted for the template by  Wim van der Kuil - Leuven-Template.eu

You find our weather info also at:

European Weather Network

Weather Underground

Equipment we use:

Weather-station
Davis Vue

Weather-program
Meteohub

Weather-server
Raspberry PI 2 B+

Provider
1 and 1

Davis Vue

Meteohub

Raspberry PI 2 B+

1 and 1